KLMT/LMT METAR and TAF weather

Enter ICAO airport designator
Station Type Date Time Source
KLMT METAR 2019/12/08 11:24 UTC NOAA

KLMT 081124Z AUTO 17003KT 10SM BKN028 BKN036 02/01 A2987 RMK AO2 T00170006


Station Type Date Time Source
KLMT Decoded METAR 2019/12/08 11:24 UTC NOAA

KLAMATH FALLS INTERNATIONAL AIRPORT, OR, United States (KLMT) 42-09N 121-43W 1246M
Dec 08, 2019 - 06:24 AM EST / 2019.12.08 1124 UTC
Wind: from the S (170 degrees) at 3 MPH (3 KT):0
Visibility: 10 mile(s):0
Sky conditions: mostly cloudy
Temperature: 35.1 F (1.7 C)
Dew Point: 33.1 F (0.6 C)
Relative Humidity: 92%
Pressure (altimeter): 29.87 in. Hg (1011 hPa)
ob: KLMT 081124Z AUTO 17003KT 10SM BKN028 BKN036 02/01 A2987 RMK AO2 T00170006
cycle: 11

Station Type Date Time Source
KLMT TAF 2019/12/08 12:33 UTC NOAA

TAF KLMT 081129Z 0812/0912 17004KT P6SM VCSH BKN035 OVC050
FM082000 VRB03KT P6SM BKN050
FM090500 00000KT 5SM BR SCT002
FM090800 00000KT 1/2SM FZFG VV002

Example: see airport list